sensor_id;sensor_type;location;lat;lon;timestamp;pressure;altitude;pressure_sealevel;temperature;humidity
57086;BME280;42964;42.910;23.792;2023-03-24T00:03:19;97757.19;;;5.27;85.42
57086;BME280;42964;42.910;23.792;2023-03-24T00:08:18;97751.06;;;5.21;85.54
57086;BME280;42964;42.910;23.792;2023-03-24T00:13:17;97758.78;;;5.21;85.48
57086;BME280;42964;42.910;23.792;2023-03-24T00:18:16;97753.31;;;5.05;86.14
57086;BME280;42964;42.910;23.792;2023-03-24T00:23:16;97759.94;;;4.94;86.42
57086;BME280;42964;42.910;23.792;2023-03-24T00:28:15;97752.59;;;4.73;87.38
57086;BME280;42964;42.910;23.792;2023-03-24T00:33:14;97751.78;;;4.74;87.23
57086;BME280;42964;42.910;23.792;2023-03-24T00:38:13;97759.44;;;4.72;86.95
57086;BME280;42964;42.910;23.792;2023-03-24T00:43:12;97752.53;;;4.70;87.05
57086;BME280;42964;42.910;23.792;2023-03-24T00:48:14;97759.31;;;4.66;87.09
57086;BME280;42964;42.910;23.792;2023-03-24T00:53:15;97761.00;;;4.64;86.96
57086;BME280;42964;42.910;23.792;2023-03-24T00:58:16;97748.06;;;4.61;87.13
57086;BME280;42964;42.910;23.792;2023-03-24T01:03:18;97753.13;;;4.58;87.11
57086;BME280;42964;42.910;23.792;2023-03-24T01:08:19;97744.53;;;4.56;86.78
57086;BME280;42964;42.910;23.792;2023-03-24T01:13:24;97737.34;;;4.41;86.52
57086;BME280;42964;42.910;23.792;2023-03-24T01:18:23;97747.72;;;4.46;86.63
57086;BME280;42964;42.910;23.792;2023-03-24T01:23:24;97739.88;;;4.40;86.68
57086;BME280;42964;42.910;23.792;2023-03-24T01:28:24;97739.91;;;4.41;86.73
57086;BME280;42964;42.910;23.792;2023-03-24T01:33:23;97743.28;;;4.39;86.77
57086;BME280;42964;42.910;23.792;2023-03-24T01:38:22;97744.84;;;4.34;86.69
57086;BME280;42964;42.910;23.792;2023-03-24T01:43:24;97697.00;;;4.01;86.82
57086;BME280;42964;42.910;23.792;2023-03-24T01:48:33;97741.28;;;4.27;86.88
57086;BME280;42964;42.910;23.792;2023-03-24T01:53:36;97757.34;;;4.18;87.17
57086;BME280;42964;42.910;23.792;2023-03-24T01:58:37;97672.28;;;3.70;86.75
57086;BME280;42964;42.910;23.792;2023-03-24T02:03:38;97658.44;;;3.63;86.64
57086;BME280;42964;42.910;23.792;2023-03-24T02:13:41;97761.41;;;4.10;86.57
57086;BME280;42964;42.910;23.792;2023-03-24T02:18:46;97760.38;;;4.02;87.22
57086;BME280;42964;42.910;23.792;2023-03-24T02:45:37;97669.66;;;3.67;86.81
57086;BME280;42964;42.910;23.792;2023-03-24T02:50:55;97726.88;;;3.97;87.58
57086;BME280;42964;42.910;23.792;2023-03-24T02:56:12;97734.47;;;3.93;87.46
57086;BME280;42964;42.910;23.792;2023-03-24T03:01:22;97740.47;;;3.93;87.00
57086;BME280;42964;42.910;23.792;2023-03-24T03:06:32;97730.13;;;3.90;86.84
57086;BME280;42964;42.910;23.792;2023-03-24T03:11:32;97712.22;;;3.92;86.92
57086;BME280;42964;42.910;23.792;2023-03-24T03:16:38;97716.72;;;3.67;88.33
57086;BME280;42964;42.910;23.792;2023-03-24T03:21:40;97668.09;;;3.38;88.11
57086;BME280;42964;42.910;23.792;2023-03-24T03:26:43;97710.72;;;3.67;87.79
57086;BME280;42964;42.910;23.792;2023-03-24T03:31:50;97710.72;;;3.67;88.35
57086;BME280;42964;42.910;23.792;2023-03-24T03:37:02;97714.19;;;3.69;87.69
57086;BME280;42964;42.910;23.792;2023-03-24T03:42:03;97718.28;;;3.62;87.91
57086;BME280;42964;42.910;23.792;2023-03-24T03:47:04;97711.41;;;3.61;88.01
57086;BME280;42964;42.910;23.792;2023-03-24T03:52:05;97717.31;;;3.57;88.33
57086;BME280;42964;42.910;23.792;2023-03-24T03:57:04;97728.38;;;3.56;88.19
57086;BME280;42964;42.910;23.792;2023-03-24T04:18:11;97739.19;;;3.44;88.08
57086;BME280;42964;42.910;23.792;2023-03-24T04:34:01;97740.94;;;3.45;87.57
57086;BME280;42964;42.910;23.792;2023-03-24T04:39:03;97742.63;;;3.44;87.63
57086;BME280;42964;42.910;23.792;2023-03-24T04:44:03;97737.50;;;3.44;87.69
57086;BME280;42964;42.910;23.792;2023-03-24T04:49:03;97724.34;;;3.32;87.02
57086;BME280;42964;42.910;23.792;2023-03-24T04:54:02;97753.13;;;3.52;87.14
57086;BME280;42964;42.910;23.792;2023-03-24T04:59:01;97766.06;;;3.57;87.52
57086;BME280;42964;42.910;23.792;2023-03-24T05:04:00;97758.63;;;3.66;87.43
57086;BME280;42964;42.910;23.792;2023-03-24T05:08:59;97773.47;;;3.79;87.69
57086;BME280;42964;42.910;23.792;2023-03-24T05:13:58;97771.31;;;3.95;87.70
57086;BME280;42964;42.910;23.792;2023-03-24T05:18:57;97769.16;;;4.12;87.99
57086;BME280;42964;42.910;23.792;2023-03-24T05:23:56;97769.56;;;4.28;88.01
57086;BME280;42964;42.910;23.792;2023-03-24T05:28:55;97769.09;;;4.45;88.30
57086;BME280;42964;42.910;23.792;2023-03-24T05:33:54;97775.53;;;4.64;87.95
57086;BME280;42964;42.910;23.792;2023-03-24T05:38:54;97772.44;;;4.79;88.47
57086;BME280;42964;42.910;23.792;2023-03-24T05:43:53;97767.75;;;4.97;88.08
57086;BME280;42964;42.910;23.792;2023-03-24T05:48:52;97765.66;;;5.22;88.13
57086;BME280;42964;42.910;23.792;2023-03-24T05:53:51;97771.84;;;5.30;88.28
57086;BME280;42964;42.910;23.792;2023-03-24T05:58:50;97775.78;;;5.57;87.91
57086;BME280;42964;42.910;23.792;2023-03-24T06:03:50;97779.31;;;5.62;87.39
57086;BME280;42964;42.910;23.792;2023-03-24T06:08:49;97777.84;;;5.74;87.04
57086;BME280;42964;42.910;23.792;2023-03-24T06:13:52;97784.16;;;5.92;87.39
57086;BME280;42964;42.910;23.792;2023-03-24T06:18:51;97783.66;;;6.13;87.46
57086;BME280;42964;42.910;23.792;2023-03-24T06:23:50;97783.19;;;6.37;86.70
57086;BME280;42964;42.910;23.792;2023-03-24T06:28:49;97786.16;;;6.63;86.02
57086;BME280;42964;42.910;23.792;2023-03-24T06:33:51;97794.00;;;6.69;84.97
57086;BME280;42964;42.910;23.792;2023-03-24T06:38:50;97794.34;;;6.92;85.56
57086;BME280;42964;42.910;23.792;2023-03-24T06:43:49;97786.78;;;7.06;85.61
57086;BME280;42964;42.910;23.792;2023-03-24T06:48:48;97792.38;;;7.38;85.02
57086;BME280;42964;42.910;23.792;2023-03-24T06:53:46;97796.06;;;7.57;83.98
57086;BME280;42964;42.910;23.792;2023-03-24T06:58:46;97790.28;;;7.80;82.62
57086;BME280;42964;42.910;23.792;2023-03-24T07:03:45;97796.50;;;7.97;81.24
57086;BME280;42964;42.910;23.792;2023-03-24T07:08:44;97788.03;;;8.14;80.77
57086;BME280;42964;42.910;23.792;2023-03-24T07:13:43;97764.84;;;8.21;79.66
57086;BME280;42964;42.910;23.792;2023-03-24T07:18:42;97788.38;;;8.57;78.80
57086;BME280;42964;42.910;23.792;2023-03-24T07:23:41;97787.75;;;8.88;76.41
57086;BME280;42964;42.910;23.792;2023-03-24T07:28:40;97787.00;;;9.11;75.42
57086;BME280;42964;42.910;23.792;2023-03-24T07:33:39;97790.59;;;9.34;75.11
57086;BME280;42964;42.910;23.792;2023-03-24T07:38:38;97780.34;;;9.67;74.44
57086;BME280;42964;42.910;23.792;2023-03-24T07:43:37;97770.06;;;9.87;72.96
57086;BME280;42964;42.910;23.792;2023-03-24T07:48:36;97770.06;;;10.11;72.00
57086;BME280;42964;42.910;23.792;2023-03-24T07:53:35;97757.97;;;10.35;70.54
57086;BME280;42964;42.910;23.792;2023-03-24T07:58:34;97758.84;;;10.57;68.97
57086;BME280;42964;42.910;23.792;2023-03-24T08:03:33;97754.50;;;10.76;67.64
57086;BME280;42964;42.910;23.792;2023-03-24T08:08:33;97746.69;;;11.08;63.60
57086;BME280;42964;42.910;23.792;2023-03-24T08:13:32;97735.34;;;11.26;62.53
57086;BME280;42964;42.910;23.792;2023-03-24T08:18:31;97742.09;;;11.62;63.77
57086;BME280;42964;42.910;23.792;2023-03-24T08:23:32;97727.19;;;11.87;63.17
57086;BME280;42964;42.910;23.792;2023-03-24T08:28:31;97722.59;;;12.26;62.06
57086;BME280;42964;42.910;23.792;2023-03-24T08:33:30;97709.28;;;12.62;59.92
57086;BME280;42964;42.910;23.792;2023-03-24T08:38:29;97703.88;;;12.82;55.44
57086;BME280;42964;42.910;23.792;2023-03-24T08:43:29;97692.41;;;12.98;55.79
57086;BME280;42964;42.910;23.792;2023-03-24T08:48:29;97679.25;;;13.09;54.51
57086;BME280;42964;42.910;23.792;2023-03-24T08:53:28;97677.81;;;13.54;54.06
57086;BME280;42964;42.910;23.792;2023-03-24T08:58:27;97665.97;;;13.91;54.29
57086;BME280;42964;42.910;23.792;2023-03-24T09:03:26;97655.91;;;14.22;52.97
57086;BME280;42964;42.910;23.792;2023-03-24T09:08:24;97656.38;;;14.46;53.43
57086;BME280;42964;42.910;23.792;2023-03-24T09:13:24;97641.97;;;14.70;52.71
57086;BME280;42964;42.910;23.792;2023-03-24T09:18:23;97646.03;;;14.88;52.55
57086;BME280;42964;42.910;23.792;2023-03-24T09:23:22;97626.34;;;15.13;51.22
57086;BME280;42964;42.910;23.792;2023-03-24T09:28:21;97634.75;;;15.28;47.68
57086;BME280;42964;42.910;23.792;2023-03-24T09:33:20;97602.66;;;15.19;47.74
57086;BME280;42964;42.910;23.792;2023-03-24T09:38:22;97613.53;;;15.40;44.81
57086;BME280;42964;42.910;23.792;2023-03-24T09:43:34;97621.00;;;15.57;44.37
57086;BME280;42964;42.910;23.792;2023-03-24T09:48:38;97614.19;;;15.88;41.03
57086;BME280;42964;42.910;23.792;2023-03-24T09:53:54;97598.22;;;16.32;38.47
57086;BME280;42964;42.910;23.792;2023-03-24T10:03:59;97590.44;;;16.93;35.71
57086;BME280;42964;42.910;23.792;2023-03-24T10:09:21;97580.00;;;17.21;34.61
57086;BME280;42964;42.910;23.792;2023-03-24T10:29:53;97568.69;;;18.02;32.47
57086;BME280;42964;42.910;23.792;2023-03-24T10:34:58;97530.28;;;18.00;33.34
57086;BME280;42964;42.910;23.792;2023-03-24T10:40:14;97559.56;;;18.39;33.34
57086;BME280;42964;42.910;23.792;2023-03-24T10:45:23;97550.72;;;18.65;32.38
57086;BME280;42964;42.910;23.792;2023-03-24T10:50:25;97546.47;;;18.86;32.17
57086;BME280;42964;42.910;23.792;2023-03-24T10:55:30;97542.81;;;18.90;31.57
57086;BME280;42964;42.910;23.792;2023-03-24T11:00:31;97537.97;;;19.01;30.55
57086;BME280;42964;42.910;23.792;2023-03-24T11:05:35;97538.25;;;19.17;31.33
57086;BME280;42964;42.910;23.792;2023-03-24T11:10:35;97522.84;;;19.30;31.53
57086;BME280;42964;42.910;23.792;2023-03-24T11:15:35;97489.69;;;19.26;30.19
57086;BME280;42964;42.910;23.792;2023-03-24T11:20:39;97505.09;;;19.57;30.44
57086;BME280;42964;42.910;23.792;2023-03-24T11:25:44;97493.09;;;19.72;29.86
57086;BME280;42964;42.910;23.792;2023-03-24T11:30:50;97489.00;;;19.85;30.49
57086;BME280;42964;42.910;23.792;2023-03-24T11:35:50;97471.03;;;19.95;27.46
57086;BME280;42964;42.910;23.792;2023-03-24T11:41:12;97479.28;;;20.08;28.51
57086;BME280;42964;42.910;23.792;2023-03-24T11:46:17;97463.88;;;19.99;28.69
57086;BME280;42964;42.910;23.792;2023-03-24T11:51:27;97459.50;;;20.18;28.08
57086;BME280;42964;42.910;23.792;2023-03-24T11:56:37;97452.03;;;20.28;28.40
57086;BME280;42964;42.910;23.792;2023-03-24T12:01:44;97444.19;;;20.47;26.29
57086;BME280;42964;42.910;23.792;2023-03-24T12:17:19;97430.13;;;20.65;25.98
57086;BME280;42964;42.910;23.792;2023-03-24T12:55:01;97383.66;;;21.18;28.15
57086;BME280;42964;42.910;23.792;2023-03-24T13:00:12;97383.00;;;21.32;27.81
57086;BME280;42964;42.910;23.792;2023-03-24T13:05:21;97362.81;;;21.31;28.16
57086;BME280;42964;42.910;23.792;2023-03-24T13:10:29;97339.75;;;21.34;28.25
57086;BME280;42964;42.910;23.792;2023-03-24T13:15:40;97350.59;;;21.81;28.16
57086;BME280;42964;42.910;23.792;2023-03-24T13:20:52;97356.47;;;22.19;28.29
57086;BME280;42964;42.910;23.792;2023-03-24T13:31:05;97339.78;;;21.85;27.57
57086;BME280;42964;42.910;23.792;2023-03-24T13:36:36;97339.91;;;21.82;27.10
57086;BME280;42964;42.910;23.792;2023-03-24T13:41:36;97328.31;;;22.02;27.99
57086;BME280;42964;42.910;23.792;2023-03-24T13:46:37;97318.63;;;22.18;27.65
57086;BME280;42964;42.910;23.792;2023-03-24T13:51:45;97314.19;;;22.19;26.07
57086;BME280;42964;42.910;23.792;2023-03-24T13:56:54;97316.25;;;22.14;26.96
57086;BME280;42964;42.910;23.792;2023-03-24T14:07:45;97180.41;;;21.20;26.67
57086;BME280;42964;42.910;23.792;2023-03-24T14:28:37;97306.28;;;21.00;28.95
57086;BME280;42964;42.910;23.792;2023-03-24T14:33:38;97296.34;;;20.88;28.45
57086;BME280;42964;42.910;23.792;2023-03-24T14:38:43;97292.47;;;20.95;29.16
57086;BME280;42964;42.910;23.792;2023-03-24T14:49:19;97296.81;;;20.96;29.21
57086;BME280;42964;42.910;23.792;2023-03-24T14:59:48;97294.78;;;20.84;29.88
57086;BME280;42964;42.910;23.792;2023-03-24T15:10:18;97300.41;;;20.21;29.84
57086;BME280;42964;42.910;23.792;2023-03-24T15:15:21;97259.28;;;19.80;30.58
57086;BME280;42964;42.910;23.792;2023-03-24T15:20:41;97303.38;;;19.96;31.46
57086;BME280;42964;42.910;23.792;2023-03-24T15:25:43;97296.88;;;19.84;31.87
57086;BME280;42964;42.910;23.792;2023-03-24T15:30:42;97272.75;;;19.54;31.83
57086;BME280;42964;42.910;23.792;2023-03-24T15:35:42;97309.94;;;19.85;32.87
57086;BME280;42964;42.910;23.792;2023-03-24T15:40:51;97303.28;;;19.97;34.72
57086;BME280;42964;42.910;23.792;2023-03-24T15:45:55;97219.22;;;19.34;34.66
57086;BME280;42964;42.910;23.792;2023-03-24T15:51:02;97313.50;;;19.65;34.28
57086;BME280;42964;42.910;23.792;2023-03-24T15:56:06;97325.13;;;19.60;34.21
57086;BME280;42964;42.910;23.792;2023-03-24T16:01:16;97331.91;;;19.45;34.09
57086;BME280;42964;42.910;23.792;2023-03-24T16:06:25;97328.97;;;19.32;34.48
57086;BME280;42964;42.910;23.792;2023-03-24T16:11:28;97331.50;;;19.13;34.92
57086;BME280;42964;42.910;23.792;2023-03-24T16:16:28;97341.03;;;18.95;35.20
57086;BME280;42964;42.910;23.792;2023-03-24T16:21:28;97332.06;;;18.79;35.27
57086;BME280;42964;42.910;23.792;2023-03-24T16:26:29;97338.03;;;18.60;35.50
57086;BME280;42964;42.910;23.792;2023-03-24T16:31:30;97345.59;;;18.46;35.72
57086;BME280;42964;42.910;23.792;2023-03-24T16:36:31;97318.06;;;18.11;36.07
57086;BME280;42964;42.910;23.792;2023-03-24T16:41:30;97340.41;;;17.99;36.08
57086;BME280;42964;42.910;23.792;2023-03-24T16:46:32;97337.75;;;17.75;36.51
57086;BME280;42964;42.910;23.792;2023-03-24T16:51:32;97344.63;;;17.54;37.11
57086;BME280;42964;42.910;23.792;2023-03-24T16:56:31;97338.44;;;17.30;37.76
57086;BME280;42964;42.910;23.792;2023-03-24T17:01:41;97335.97;;;17.01;38.55
57086;BME280;42964;42.910;23.792;2023-03-24T17:06:45;97311.09;;;16.59;39.54
57086;BME280;42964;42.910;23.792;2023-03-24T17:11:49;97343.88;;;16.44;40.47
57086;BME280;42964;42.910;23.792;2023-03-24T17:16:49;97344.59;;;16.20;41.00
57086;BME280;42964;42.910;23.792;2023-03-24T17:21:58;97350.66;;;15.92;41.69
57086;BME280;42964;42.910;23.792;2023-03-24T17:26:57;97353.88;;;15.69;41.66
57086;BME280;42964;42.910;23.792;2023-03-24T17:31:56;97357.44;;;15.34;42.26
57086;BME280;42964;42.910;23.792;2023-03-24T17:36:55;97354.34;;;15.19;42.81
57086;BME280;42964;42.910;23.792;2023-03-24T17:41:54;97327.44;;;14.81;43.29
57086;BME280;42964;42.910;23.792;2023-03-24T17:46:56;97339.25;;;14.59;44.04
57086;BME280;42964;42.910;23.792;2023-03-24T17:51:55;97355.84;;;14.56;44.22
57086;BME280;42964;42.910;23.792;2023-03-24T17:56:53;97355.13;;;14.50;45.78
57086;BME280;42964;42.910;23.792;2023-03-24T18:01:52;97359.06;;;14.30;46.13
57086;BME280;42964;42.910;23.792;2023-03-24T18:06:51;97341.94;;;13.78;48.66
57086;BME280;42964;42.910;23.792;2023-03-24T18:11:50;97364.56;;;13.76;49.45
57086;BME280;42964;42.910;23.792;2023-03-24T18:16:49;97366.50;;;13.66;49.34
57086;BME280;42964;42.910;23.792;2023-03-24T18:21:48;97359.75;;;13.53;49.86
57086;BME280;42964;42.910;23.792;2023-03-24T18:26:47;97366.97;;;13.40;50.19
57086;BME280;42964;42.910;23.792;2023-03-24T18:31:46;97366.47;;;13.18;51.09
57086;BME280;42964;42.910;23.792;2023-03-24T18:36:44;97334.91;;;12.85;50.98
57086;BME280;42964;42.910;23.792;2023-03-24T18:41:46;97347.16;;;12.80;51.92
57086;BME280;42964;42.910;23.792;2023-03-24T18:46:45;97357.72;;;12.69;52.46
57086;BME280;42964;42.910;23.792;2023-03-24T18:51:44;97365.72;;;12.59;52.93
57086;BME280;42964;42.910;23.792;2023-03-24T18:56:44;97358.84;;;12.53;54.30
57086;BME280;42964;42.910;23.792;2023-03-24T19:01:43;97354.72;;;12.40;55.39
57086;BME280;42964;42.910;23.792;2023-03-24T19:06:45;97347.06;;;12.29;55.98
57086;BME280;42964;42.910;23.792;2023-03-24T19:11:45;97346.38;;;12.13;54.92
57086;BME280;42964;42.910;23.792;2023-03-24T19:16:44;97347.78;;;12.42;53.25
57086;BME280;42964;42.910;23.792;2023-03-24T19:21:43;97340.25;;;12.78;53.64
57086;BME280;42964;42.910;23.792;2023-03-24T19:26:43;97342.22;;;12.63;54.50
57086;BME280;42964;42.910;23.792;2023-03-24T19:31:43;97341.91;;;12.27;55.42
57086;BME280;42964;42.910;23.792;2023-03-24T19:36:42;97332.47;;;12.17;55.64
57086;BME280;42964;42.910;23.792;2023-03-24T19:41:42;97317.22;;;11.91;55.80
57086;BME280;42964;42.910;23.792;2023-03-24T19:46:41;97322.44;;;11.89;55.99
57086;BME280;42964;42.910;23.792;2023-03-24T19:51:40;97327.56;;;11.96;54.76
57086;BME280;42964;42.910;23.792;2023-03-24T19:56:39;97332.78;;;11.96;54.31
57086;BME280;42964;42.910;23.792;2023-03-24T20:01:38;97326.66;;;11.98;53.14
57086;BME280;42964;42.910;23.792;2023-03-24T20:06:37;97319.66;;;12.03;53.54
57086;BME280;42964;42.910;23.792;2023-03-24T20:11:36;97327.50;;;11.99;53.83
57086;BME280;42964;42.910;23.792;2023-03-24T20:16:35;97323.22;;;11.96;54.53
57086;BME280;42964;42.910;23.792;2023-03-24T20:21:34;97324.16;;;11.91;54.90
57086;BME280;42964;42.910;23.792;2023-03-24T20:26:33;97325.19;;;11.79;54.76
57086;BME280;42964;42.910;23.792;2023-03-24T20:31:32;97317.63;;;11.59;55.13
57086;BME280;42964;42.910;23.792;2023-03-24T20:36:31;97318.59;;;11.52;55.41
57086;BME280;42964;42.910;23.792;2023-03-24T20:41:30;97316.19;;;11.35;56.78
57086;BME280;42964;42.910;23.792;2023-03-24T20:46:29;97315.44;;;11.22;56.92
57086;BME280;42964;42.910;23.792;2023-03-24T20:51:28;97303.50;;;11.07;57.94
57086;BME280;42964;42.910;23.792;2023-03-24T20:56:27;97304.53;;;10.86;58.33
57086;BME280;42964;42.910;23.792;2023-03-24T21:01:26;97305.53;;;10.71;59.21
57086;BME280;42964;42.910;23.792;2023-03-24T21:06:33;97303.94;;;10.55;59.83
57086;BME280;42964;42.910;23.792;2023-03-24T21:11:32;97301.31;;;10.56;59.33
57086;BME280;42964;42.910;23.792;2023-03-24T21:16:31;97296.94;;;10.63;58.35
57086;BME280;42964;42.910;23.792;2023-03-24T21:21:35;97294.38;;;10.61;57.59
57086;BME280;42964;42.910;23.792;2023-03-24T21:26:35;97298.53;;;10.79;57.96
57086;BME280;42964;42.910;23.792;2023-03-24T21:31:34;97289.84;;;10.83;57.00
57086;BME280;42964;42.910;23.792;2023-03-24T21:36:34;97295.81;;;10.96;57.00
57086;BME280;42964;42.910;23.792;2023-03-24T21:41:35;97155.53;;;10.22;56.11
57086;BME280;42964;42.910;23.792;2023-03-24T21:46:36;97302.63;;;11.07;56.61
57086;BME280;42964;42.910;23.792;2023-03-24T21:51:35;97292.44;;;10.85;57.41
57086;BME280;42964;42.910;23.792;2023-03-24T21:56:34;97281.31;;;10.69;58.61
57086;BME280;42964;42.910;23.792;2023-03-24T22:01:35;97299.50;;;10.68;58.03
57086;BME280;42964;42.910;23.792;2023-03-24T22:06:34;97296.94;;;10.66;58.66
57086;BME280;42964;42.910;23.792;2023-03-24T22:11:35;97302.94;;;10.70;58.24
57086;BME280;42964;42.910;23.792;2023-03-24T22:16:34;97283.19;;;10.53;58.08
57086;BME280;42964;42.910;23.792;2023-03-24T22:21:34;97294.47;;;10.51;58.99
57086;BME280;42964;42.910;23.792;2023-03-24T22:26:33;97260.00;;;10.35;58.37
57086;BME280;42964;42.910;23.792;2023-03-24T22:31:32;97260.84;;;10.38;57.82
57086;BME280;42964;42.910;23.792;2023-03-24T22:36:31;97284.03;;;10.55;58.08
57086;BME280;42964;42.910;23.792;2023-03-24T22:41:30;97281.53;;;10.46;58.70
57086;BME280;42964;42.910;23.792;2023-03-24T22:46:29;97280.66;;;10.47;58.77
57086;BME280;42964;42.910;23.792;2023-03-24T22:51:29;97170.69;;;9.63;60.24
57086;BME280;42964;42.910;23.792;2023-03-24T22:56:29;97286.13;;;10.07;61.32
57086;BME280;42964;42.910;23.792;2023-03-24T23:01:28;97284.53;;;9.86;61.42
57086;BME280;42964;42.910;23.792;2023-03-24T23:06:27;97288.13;;;9.65;62.78
57086;BME280;42964;42.910;23.792;2023-03-24T23:11:26;97285.56;;;9.54;62.90
57086;BME280;42964;42.910;23.792;2023-03-24T23:16:25;97274.38;;;9.48;62.94
57086;BME280;42964;42.910;23.792;2023-03-24T23:21:24;97274.38;;;9.42;64.09
57086;BME280;42964;42.910;23.792;2023-03-24T23:26:23;97265.78;;;9.40;63.82
57086;BME280;42964;42.910;23.792;2023-03-24T23:31:24;97259.75;;;9.22;65.26
57086;BME280;42964;42.910;23.792;2023-03-24T23:36:24;97263.22;;;9.21;65.24
57086;BME280;42964;42.910;23.792;2023-03-24T23:41:24;97254.66;;;9.07;65.58
57086;BME280;42964;42.910;23.792;2023-03-24T23:46:23;97257.19;;;9.13;65.67
57086;BME280;42964;42.910;23.792;2023-03-24T23:51:21;97263.25;;;9.04;65.97
57086;BME280;42964;42.910;23.792;2023-03-24T23:56:20;97256.38;;;8.97;66.42
